createdAt,value
2015-09-19T00:00:10.252Z,68
2015-09-19T00:00:28.627Z,69
2015-09-19T00:00:47.004Z,68
2015-09-19T00:01:05.395Z,68
2015-09-19T00:01:23.801Z,68
2015-09-19T00:01:42.178Z,67
2015-09-19T00:02:00.569Z,67
2015-09-19T00:02:18.928Z,67
2015-09-19T00:02:37.305Z,67
2015-09-19T00:02:55.711Z,68
2015-09-19T00:03:14.086Z,68
2015-09-19T00:03:32.461Z,68
2015-09-19T00:03:50.854Z,68
2015-09-19T00:04:09.229Z,68
2015-09-19T00:04:27.635Z,68
2015-09-19T00:04:46.012Z,68
2015-09-19T00:05:04.403Z,68
2015-09-19T00:05:22.762Z,68
2015-09-19T00:05:41.155Z,68
2015-09-19T00:05:59.514Z,69
2015-09-19T00:06:17.936Z,68
2015-09-19T00:06:36.311Z,69
2015-09-19T00:06:54.704Z,68
2015-09-19T00:07:13.094Z,68
2015-09-19T00:07:31.469Z,69
2015-09-19T00:07:49.862Z,69
2015-09-19T00:08:08.237Z,70
2015-09-19T00:08:26.643Z,69
2015-09-19T00:08:45.005Z,69
2015-09-19T00:09:03.380Z,69
2015-09-19T00:09:21.770Z,69
2015-09-19T00:09:40.145Z,70
2015-09-19T00:09:58.538Z,69
2015-09-19T00:10:16.928Z,70
2015-09-19T00:10:35.335Z,72
2015-09-19T00:10:53.726Z,72
2015-09-19T00:11:12.117Z,72
2015-09-19T00:11:30.461Z,72
2015-09-19T00:11:48.886Z,72
2015-09-19T00:12:07.245Z,72
2015-09-19T00:12:25.636Z,72
2015-09-19T00:12:44.011Z,72
2015-09-19T00:13:02.403Z,72
2015-09-19T00:13:20.778Z,73
2015-09-19T00:13:39.184Z,72
2015-09-19T00:13:57.546Z,73
2015-09-19T00:14:15.952Z,73
2015-09-19T00:14:34.311Z,73
2015-09-19T00:14:52.688Z,73
2015-09-19T00:15:10.907Z,73
2015-09-19T00:15:29.282Z,73
2015-09-19T00:15:47.673Z,73
2015-09-19T00:16:06.096Z,73
2015-09-19T00:16:24.486Z,74
2015-09-19T00:16:42.861Z,74
2015-09-19T00:17:01.239Z,74
2015-09-19T00:17:19.646Z,74
2015-09-19T00:17:38.083Z,74
2015-09-19T00:17:56.475Z,74
2015-09-19T00:18:14.865Z,74
2015-09-19T00:18:33.225Z,74
2015-09-19T00:18:51.615Z,73
2015-09-19T00:19:10.009Z,73
2015-09-19T00:19:28.384Z,73
2015-09-19T00:19:46.743Z,74
2015-09-19T00:20:05.135Z,73
2015-09-19T00:20:23.526Z,75
2015-09-19T00:20:41.916Z,74
2015-09-19T00:21:00.309Z,76
2015-09-19T00:21:18.699Z,75
2015-09-19T00:21:37.074Z,75
2015-09-19T00:21:55.434Z,75
2015-09-19T00:22:13.812Z,74
2015-09-19T00:22:32.202Z,74
2015-09-19T00:22:50.593Z,74
2015-09-19T00:23:09.032Z,74
2015-09-19T00:23:27.438Z,74
2015-09-19T00:23:45.657Z,74
2015-09-19T00:24:04.049Z,74
2015-09-19T00:24:22.424Z,75
2015-09-19T00:24:40.799Z,74
2015-09-19T00:24:59.174Z,74
2015-09-19T00:25:17.567Z,74
2015-09-19T00:25:35.942Z,75
2015-09-19T00:25:54.301Z,74
2015-09-19T00:26:12.678Z,74
2015-09-19T00:26:31.084Z,75
2015-09-19T00:26:49.459Z,74
2015-09-19T00:27:07.869Z,72
2015-09-19T00:27:26.228Z,71
2015-09-19T00:27:43.962Z,72
2015-09-19T00:28:02.322Z,72
2015-09-19T00:28:20.698Z,72
2015-09-19T00:28:39.088Z,73
2015-09-19T00:28:57.448Z,73
2015-09-19T00:29:15.200Z,72
2015-09-19T00:29:33.606Z,72
2015-09-19T00:29:51.965Z,72
2015-09-19T00:30:10.374Z,72
2015-09-19T00:30:28.733Z,72
2015-09-19T00:30:47.139Z,72
2015-09-19T00:31:05.499Z,72
2015-09-19T00:31:23.923Z,73
2015-09-19T00:31:42.344Z,72
2015-09-19T00:32:00.860Z,72
2015-09-19T00:32:19.237Z,72
2015-09-19T00:32:37.612Z,72
2015-09-19T00:32:56.018Z,73
2015-09-19T00:33:14.380Z,72
2015-09-19T00:33:32.614Z,73
2015-09-19T00:33:50.989Z,73
2015-09-19T00:34:09.364Z,73
2015-09-19T00:34:27.741Z,72
2015-09-19T00:34:46.132Z,72
2015-09-19T00:35:04.522Z,72
2015-09-19T00:35:22.899Z,72
2015-09-19T00:35:41.274Z,72
2015-09-19T00:35:59.649Z,72
2015-09-19T00:36:18.042Z,71
2015-09-19T00:36:36.448Z,71
2015-09-19T00:36:54.839Z,72
2015-09-19T00:37:13.245Z,72
2015-09-19T00:37:31.622Z,72
2015-09-19T00:37:49.981Z,71
2015-09-19T00:38:08.356Z,72
2015-09-19T00:38:26.733Z,72
2015-09-19T00:38:45.108Z,72
2015-09-19T00:39:03.515Z,72
2015-09-19T00:39:21.875Z,72
2015-09-19T00:39:40.328Z,73
2015-09-19T00:39:58.750Z,75
2015-09-19T00:40:17.109Z,76
2015-09-19T00:40:35.503Z,73
2015-09-19T00:40:53.878Z,74
2015-09-19T00:41:12.253Z,74
2015-09-19T00:41:30.629Z,72
2015-09-19T00:41:49.035Z,71
2015-09-19T00:42:07.410Z,71
2015-09-19T00:42:25.803Z,72
2015-09-19T00:43:05.647Z,72
2015-09-19T00:43:24.022Z,72
2015-09-19T00:43:42.414Z,73
2015-09-19T00:44:00.805Z,73
2015-09-19T00:44:19.180Z,73
2015-09-19T00:44:37.558Z,74
2015-09-19T00:44:55.949Z,74
2015-09-19T00:45:14.324Z,73
2015-09-19T00:45:32.701Z,73
2015-09-19T00:45:51.107Z,73
2015-09-19T00:46:09.482Z,73
2015-09-19T00:46:27.888Z,73
2015-09-19T00:46:46.322Z,73
2015-09-19T00:47:04.697Z,73
2015-09-19T00:47:23.072Z,73
2015-09-19T00:47:41.525Z,73
2015-09-19T00:47:59.900Z,73
2015-09-19T00:48:18.291Z,73
2015-09-19T00:48:36.714Z,73
2015-09-19T00:48:55.089Z,73
2015-09-19T00:49:13.495Z,73
2015-09-19T00:49:31.917Z,73
2015-09-19T00:49:50.276Z,74
2015-09-19T00:50:08.651Z,73
2015-09-19T00:50:27.042Z,74
2015-09-19T00:50:45.480Z,74
2015-09-19T00:51:03.855Z,73
2015-09-19T00:51:22.246Z,74
2015-09-19T00:51:40.656Z,73
2015-09-19T00:51:59.046Z,74
2015-09-19T00:52:17.421Z,74
2015-09-19T00:52:35.814Z,74
2015-09-19T00:52:54.221Z,74
2015-09-19T00:53:12.596Z,74
2015-09-19T00:53:31.002Z,76
2015-09-19T00:53:49.379Z,75
2015-09-19T00:54:07.739Z,76
2015-09-19T00:54:26.129Z,76
2015-09-19T00:54:44.538Z,74
2015-09-19T00:55:02.272Z,74
2015-09-19T00:55:20.647Z,76
2015-09-19T00:55:39.057Z,77
2015-09-19T00:55:57.432Z,77
2015-09-19T00:56:15.822Z,77
2015-09-19T00:56:34.213Z,78
2015-09-19T00:56:52.595Z,78
2015-09-19T00:57:10.970Z,78
2015-09-19T00:57:29.361Z,78
2015-09-19T00:57:47.775Z,78
2015-09-19T00:58:06.150Z,77
2015-09-19T00:58:24.556Z,78
2015-09-19T00:58:42.939Z,78
2015-09-19T00:59:01.314Z,78
2015-09-19T00:59:19.689Z,78
2015-09-19T00:59:38.064Z,78
2015-09-19T00:59:56.447Z,78
2015-09-19T01:00:14.807Z,77
2015-09-19T01:00:33.244Z,77
2015-09-19T01:00:51.610Z,78
2015-09-19T01:01:09.985Z,78
2015-09-19T01:01:28.360Z,78
2015-09-19T01:01:46.725Z,78
2015-09-19T01:02:05.100Z,78
2015-09-19T01:02:23.522Z,78
2015-09-19T01:02:41.881Z,78
2015-09-19T01:03:00.276Z,78
2015-09-19T01:03:18.635Z,79
2015-09-19T01:03:37.026Z,79
2015-09-19T01:03:55.389Z,79
2015-09-19T01:04:13.764Z,82
2015-09-19T01:04:32.155Z,78
2015-09-19T01:04:50.565Z,78
2015-09-19T01:05:08.940Z,78
2015-09-19T01:05:27.331Z,77
2015-09-19T01:05:45.924Z,78
2015-09-19T01:06:04.116Z,78
2015-09-19T01:06:22.491Z,78
2015-09-19T01:06:41.085Z,78
2015-09-19T01:06:58.603Z,78
2015-09-19T01:07:16.994Z,77
2015-09-19T01:07:35.384Z,77
2015-09-19T01:07:53.747Z,77
2015-09-19T01:08:12.122Z,78
2015-09-19T01:08:30.497Z,79
2015-09-19T01:08:48.903Z,79
2015-09-19T01:09:07.280Z,79
2015-09-19T01:09:25.655Z,79
2015-09-19T01:09:44.030Z,78
2015-09-19T01:10:02.408Z,80
2015-09-19T01:10:20.783Z,77
2015-09-19T01:10:39.142Z,78
2015-09-19T01:10:57.536Z,78
2015-09-19T01:11:15.911Z,78
2015-09-19T01:11:34.302Z,78
2015-09-19T01:11:52.661Z,77
2015-09-19T01:12:11.022Z,78
2015-09-19T01:12:29.397Z,79
2015-09-19T01:12:47.804Z,79
2015-09-19T01:13:06.182Z,79
2015-09-19T01:13:24.572Z,80
2015-09-19T01:13:42.947Z,79
2015-09-19T01:14:01.340Z,80
2015-09-19T01:14:19.715Z,80
2015-09-19T01:14:38.106Z,79
2015-09-19T01:14:56.496Z,79
2015-09-19T01:15:14.889Z,78
2015-09-19T01:15:33.264Z,79
2015-09-19T01:15:51.654Z,79
2015-09-19T01:16:10.031Z,80
2015-09-19T01:16:28.422Z,81
2015-09-19T01:16:46.797Z,80
2015-09-19T01:17:05.190Z,80
2015-09-19T01:17:23.580Z,80
2015-09-19T01:17:41.940Z,80
2015-09-19T01:18:00.315Z,80
2015-09-19T01:18:18.676Z,80
2015-09-19T01:18:37.270Z,80
2015-09-19T01:18:55.879Z,80
2015-09-19T01:19:14.491Z,80
2015-09-19T01:19:33.069Z,79
2015-09-19T01:19:51.537Z,79
2015-09-19T01:20:09.994Z,80
2015-09-19T01:20:28.681Z,80
2015-09-19T01:20:47.322Z,80
2015-09-19T01:21:05.947Z,80
2015-09-19T01:21:24.682Z,80
2015-09-19T01:21:43.198Z,80
2015-09-19T01:22:01.870Z,80
2015-09-19T01:22:20.543Z,80
2015-09-19T01:22:39.106Z,81
2015-09-19T01:22:57.700Z,80
2015-09-19T01:23:16.186Z,80
2015-09-19T01:23:34.655Z,79
2015-09-19T01:23:53.530Z,80
2015-09-19T01:24:11.985Z,80
2015-09-19T01:24:30.672Z,80
2015-09-19T01:24:49.219Z,80
2015-09-19T01:25:07.844Z,80
2015-09-19T01:25:26.268Z,80
2015-09-19T01:25:44.534Z,80
2015-09-19T01:26:03.003Z,80
2015-09-19T01:26:21.614Z,80
2015-09-19T01:26:40.411Z,79
2015-09-19T01:26:59.114Z,79
2015-09-19T01:27:17.725Z,79
2015-09-19T01:27:36.147Z,79
2015-09-19T01:27:54.569Z,79
2015-09-19T01:28:13.038Z,80
2015-09-19T01:28:31.587Z,80
2015-09-19T01:28:50.415Z,80
2015-09-19T01:29:08.774Z,80
2015-09-19T01:29:27.276Z,80
2015-09-19T01:29:45.792Z,80
2015-09-19T01:30:04.198Z,80
2015-09-19T01:30:22.669Z,81
2015-09-19T01:30:41.356Z,80
2015-09-19T01:31:00.013Z,80
2015-09-19T01:31:18.452Z,80
2015-09-19T01:31:37.218Z,80
2015-09-19T01:31:55.983Z,80
2015-09-19T01:32:14.343Z,80
2015-09-19T01:32:32.922Z,80
2015-09-19T01:32:51.328Z,80
2015-09-19T01:33:10.016Z,80
2015-09-19T01:33:28.409Z,80
2015-09-19T01:33:46.940Z,80
2015-09-19T01:34:05.331Z,80
2015-09-19T01:34:23.754Z,80
2015-09-19T01:34:42.332Z,80
2015-09-19T01:35:00.957Z,80
2015-09-19T01:35:19.332Z,80
2015-09-19T01:35:37.882Z,80
2015-09-19T01:35:56.398Z,80
2015-09-19T01:36:15.038Z,80
2015-09-19T01:36:33.493Z,81
2015-09-19T01:36:52.212Z,81
2015-09-19T01:37:10.775Z,80
2015-09-19T01:37:29.339Z,80
2015-09-19T01:37:48.073Z,80
2015-09-19T01:38:06.745Z,80
2015-09-19T01:38:25.341Z,80
2015-09-19T01:38:43.716Z,80
2015-09-19T01:39:02.232Z,80
2015-09-19T01:39:20.732Z,80
2015-09-19T01:39:39.170Z,80
2015-09-19T01:39:57.545Z,81
2015-09-19T01:40:16.233Z,80
2015-09-19T01:40:34.719Z,80
2015-09-19T01:40:53.110Z,80
2015-09-19T01:41:11.672Z,80
2015-09-19T01:41:30.065Z,81
2015-09-19T01:41:48.487Z,80
2015-09-19T01:42:06.971Z,84
2015-09-19T01:42:25.377Z,83
2015-09-19T01:42:43.942Z,81
2015-09-19T01:43:02.457Z,83
2015-09-19T01:43:20.973Z,82
2015-09-19T01:43:39.569Z,83
2015-09-19T01:43:58.147Z,84
2015-09-19T01:44:16.506Z,83
2015-09-19T01:44:35.071Z,80
2015-09-19T01:44:53.696Z,80
2015-09-19T01:45:12.274Z,80
2015-09-19T01:45:30.821Z,80
2015-09-19T01:45:49.198Z,81
2015-09-19T01:46:07.635Z,81
2015-09-19T01:46:26.213Z,83
2015-09-19T01:46:44.731Z,82
2015-09-19T01:47:03.262Z,81
2015-09-19T01:47:21.950Z,81
2015-09-19T01:47:40.483Z,81
2015-09-19T01:47:58.967Z,82
2015-09-19T01:48:17.327Z,81
2015-09-19T01:48:35.764Z,82
2015-09-19T01:48:54.517Z,81
2015-09-19T01:49:12.939Z,81
2015-09-19T01:49:31.533Z,81
2015-09-19T01:49:50.096Z,81
2015-09-19T01:50:08.784Z,81
2015-09-19T01:50:27.425Z,81
2015-09-19T01:50:45.848Z,81
2015-09-19T01:51:04.114Z,81
2015-09-19T01:51:22.598Z,81
2015-09-19T01:51:41.145Z,81
2015-09-19T01:51:59.647Z,81
2015-09-19T01:52:18.100Z,81
2015-09-19T01:52:36.475Z,82
2015-09-19T01:52:54.962Z,82
2015-09-19T01:53:13.493Z,82
2015-09-19T01:53:31.946Z,82
2015-09-19T01:53:50.338Z,82
2015-09-19T01:54:09.010Z,82
2015-09-19T01:54:27.572Z,81
2015-09-19T01:54:46.041Z,81
2015-09-19T01:55:04.747Z,81
2015-09-19T01:55:23.106Z,82
2015-09-19T01:55:41.810Z,81
2015-09-19T01:56:00.390Z,82
2015-09-19T01:56:18.890Z,82
2015-09-19T01:56:37.327Z,82
2015-09-19T01:56:55.954Z,82
2015-09-19T01:57:14.407Z,82
2015-09-19T01:57:32.892Z,82
2015-09-19T01:57:51.362Z,82
2015-09-19T01:58:09.644Z,82
2015-09-19T01:58:28.003Z,82
2015-09-19T01:58:46.769Z,82
2015-09-19T01:59:05.193Z,82
2015-09-19T01:59:23.724Z,82
2015-09-19T01:59:42.114Z,82
2015-09-19T02:00:00.787Z,82
2015-09-19T02:00:19.256Z,82
2015-09-19T02:00:37.850Z,82
2015-09-19T02:00:56.492Z,82
2015-09-19T02:01:14.883Z,82
2015-09-19T02:01:33.336Z,82
2015-09-19T02:01:51.867Z,82
2015-09-19T02:02:10.323Z,82
2015-09-19T02:02:28.994Z,82
2015-09-19T02:02:47.401Z,82
2015-09-19T02:03:05.981Z,82
2015-09-19T02:03:24.387Z,82
2015-09-19T02:03:42.840Z,81
2015-09-19T02:04:01.468Z,82
2015-09-19T02:04:19.890Z,82
2015-09-19T02:04:38.296Z,82
2015-09-19T02:04:56.890Z,82
2015-09-19T02:05:15.110Z,82
2015-09-19T02:05:33.594Z,82
2015-09-19T02:05:51.954Z,82
2015-09-19T02:06:10.487Z,82
2015-09-19T02:06:29.127Z,81
2015-09-19T02:06:47.799Z,81
2015-09-19T02:07:06.552Z,81
2015-09-19T02:07:25.052Z,81
2015-09-19T02:07:43.427Z,81
2015-09-19T02:08:01.991Z,81
2015-09-19T02:08:20.381Z,82
2015-09-19T02:08:38.866Z,81
2015-09-19T02:08:57.428Z,81
2015-09-19T02:09:16.071Z,81
2015-09-19T02:09:34.618Z,82
2015-09-19T02:09:53.227Z,82
2015-09-19T02:10:11.604Z,82
2015-09-19T02:10:30.089Z,81
2015-09-19T02:10:48.464Z,81
2015-09-19T02:11:07.106Z,81
2015-09-19T02:11:25.747Z,81
2015-09-19T02:11:44.231Z,81
2015-09-19T02:12:02.747Z,81
2015-09-19T02:12:21.202Z,81
2015-09-19T02:12:40.530Z,81
2015-09-19T02:12:58.952Z,81
2015-09-19T02:13:17.704Z,81
2015-09-19T02:13:36.063Z,81
2015-09-19T02:13:54.470Z,81
2015-09-19T02:14:12.940Z,81
2015-09-19T02:14:31.784Z,81
2015-09-19T02:14:50.253Z,81
2015-09-19T02:15:08.815Z,82
2015-09-19T02:15:27.521Z,81
2015-09-19T02:15:45.928Z,81
2015-09-19T02:16:04.381Z,81
2015-09-19T02:16:22.991Z,82
2015-09-19T02:16:41.444Z,82
2015-09-19T02:16:59.882Z,81
2015-09-19T02:17:18.431Z,81
2015-09-19T02:17:36.821Z,81
2015-09-19T02:17:55.368Z,82
2015-09-19T02:18:13.899Z,80
2015-09-19T02:18:32.417Z,80
2015-09-19T02:18:51.011Z,80
2015-09-19T02:19:09.433Z,80
2015-09-19T02:19:28.138Z,80
2015-09-19T02:19:46.747Z,80
2015-09-19T02:20:05.153Z,80
2015-09-19T02:20:23.514Z,80
2015-09-19T02:20:42.014Z,80
2015-09-19T02:21:00.529Z,80
2015-09-19T02:21:18.936Z,80
2015-09-19T02:21:37.454Z,80
2015-09-19T02:21:56.017Z,80
2015-09-19T02:22:14.814Z,80
2015-09-19T02:22:33.722Z,80
2015-09-19T02:22:52.238Z,80
2015-09-19T02:23:10.800Z,81
2015-09-19T02:23:29.520Z,81
2015-09-19T02:23:47.926Z,81
2015-09-19T02:24:06.739Z,81
2015-09-19T02:24:25.335Z,81
2015-09-19T02:24:44.367Z,81
2015-09-19T02:25:02.742Z,82
2015-09-19T02:25:21.148Z,82
2015-09-19T02:25:39.509Z,82
2015-09-19T02:25:58.072Z,81
2015-09-19T02:26:16.447Z,81
2015-09-19T02:26:34.838Z,81
2015-09-19T02:26:53.385Z,81
2015-09-19T02:27:11.932Z,82
2015-09-19T02:27:30.450Z,82
2015-09-19T02:27:49.028Z,82
2015-09-19T02:28:07.387Z,82
2015-09-19T02:28:26.122Z,82
2015-09-19T02:28:44.578Z,82
2015-09-19T02:29:03.015Z,81
2015-09-19T02:29:21.437Z,82
2015-09-19T02:29:39.844Z,82
2015-09-19T02:29:58.329Z,82
2015-09-19T02:30:16.797Z,82
2015-09-19T02:30:35.410Z,82
2015-09-19T02:30:53.816Z,82
2015-09-19T02:31:12.254Z,82
2015-09-19T02:31:30.644Z,82
2015-09-19T02:31:49.020Z,82
2015-09-19T02:32:07.770Z,82
2015-09-19T02:32:26.442Z,82
2015-09-19T02:32:45.116Z,82
2015-09-19T02:33:03.835Z,82
2015-09-19T02:33:22.194Z,82
2015-09-19T02:33:40.790Z,81
2015-09-19T02:33:59.149Z,82
2015-09-19T02:34:17.587Z,80
2015-09-19T02:34:35.962Z,80
2015-09-19T02:34:54.355Z,81
2015-09-19T02:35:12.730Z,80
2015-09-19T02:35:31.105Z,80
2015-09-19T02:35:49.497Z,79
2015-09-19T02:36:08.106Z,80
2015-09-19T02:36:26.731Z,81
2015-09-19T02:36:45.280Z,80
2015-09-19T02:37:03.843Z,80
2015-09-19T02:37:22.561Z,79
2015-09-19T02:37:40.921Z,79
2015-09-19T02:37:59.642Z,80
2015-09-19T02:38:18.079Z,80
2015-09-19T02:38:36.532Z,80
2015-09-19T02:38:54.926Z,79
2015-09-19T02:39:13.363Z,79
2015-09-19T02:39:31.879Z,79
2015-09-19T02:39:50.552Z,78
2015-09-19T02:40:08.927Z,78
2015-09-19T02:40:27.286Z,79
2015-09-19T02:40:45.864Z,78
2015-09-19T02:41:04.351Z,78
2015-09-19T02:41:22.804Z,78
2015-09-19T02:41:41.444Z,78
2015-09-19T02:41:59.806Z,78
2015-09-19T02:42:18.196Z,79
2015-09-19T02:42:36.759Z,78
2015-09-19T02:42:55.167Z,79
2015-09-19T02:43:13.558Z,79
2015-09-19T02:43:32.058Z,78
2015-09-19T02:43:50.698Z,79
2015-09-19T02:44:09.279Z,79
2015-09-19T02:44:27.716Z,79
2015-09-19T02:44:46.154Z,79
2015-09-19T02:45:04.624Z,78
2015-09-19T02:45:23.046Z,78
2015-09-19T02:45:41.406Z,79
2015-09-19T02:46:00.079Z,79
2015-09-19T02:46:18.689Z,79
2015-09-19T02:46:37.111Z,79
2015-09-19T02:46:55.798Z,79
2015-09-19T02:47:14.285Z,78
2015-09-19T02:47:33.050Z,79
2015-09-19T02:47:51.519Z,79
2015-09-19T02:48:10.037Z,79
2015-09-19T02:48:28.427Z,78
2015-09-19T02:48:46.880Z,79
2015-09-19T02:49:05.429Z,79
2015-09-19T02:49:23.789Z,79
2015-09-19T02:49:42.445Z,79
2015-09-19T02:50:00.884Z,81
2015-09-19T02:50:19.431Z,79
2015-09-19T02:50:37.837Z,79
2015-09-19T02:50:56.384Z,79
2015-09-19T02:51:14.918Z,79
2015-09-19T02:51:33.293Z,79
2015-09-19T02:51:51.839Z,79
2015-09-19T02:52:10.310Z,79
2015-09-19T02:52:28.873Z,79
2015-09-19T02:52:47.373Z,79
2015-09-19T02:53:06.031Z,79
2015-09-19T02:53:24.484Z,79
2015-09-19T02:53:42.859Z,79
2015-09-19T02:54:01.281Z,79
2015-09-19T02:54:19.752Z,79
2015-09-19T02:54:38.205Z,79
2015-09-19T02:54:56.564Z,79
2015-09-19T02:55:15.221Z,81
2015-09-19T02:55:33.846Z,80
2015-09-19T02:55:52.393Z,82
2015-09-19T02:56:10.817Z,81
2015-09-19T02:56:29.364Z,81
2015-09-19T02:56:48.145Z,81
2015-09-19T02:57:06.770Z,81
2015-09-19T02:57:25.289Z,81
2015-09-19T02:57:44.320Z,81
2015-09-19T02:58:02.930Z,82
2015-09-19T02:58:21.307Z,81
2015-09-19T02:58:39.728Z,81
2015-09-19T02:58:58.182Z,81
2015-09-19T02:59:16.699Z,81
2015-09-19T02:59:35.230Z,82
2015-09-19T02:59:53.699Z,82
2015-09-19T03:00:12.091Z,85
2015-09-19T03:00:30.841Z,81
2015-09-19T03:00:49.263Z,80
2015-09-19T03:01:07.763Z,79
2015-09-19T03:01:26.124Z,79
2015-09-19T03:01:44.515Z,79
2015-09-19T03:02:03.093Z,79
2015-09-19T03:02:21.518Z,79
2015-09-19T03:02:40.221Z,80
2015-09-19T03:02:58.861Z,79
2015-09-19T03:03:17.362Z,79
2015-09-19T03:03:35.987Z,80
2015-09-19T03:03:54.472Z,79
2015-09-19T03:04:13.050Z,79
2015-09-19T03:04:31.600Z,79
2015-09-19T03:04:50.100Z,79
2015-09-19T03:05:08.506Z,79
2015-09-19T03:05:26.992Z,78
2015-09-19T03:05:45.508Z,78
2015-09-19T03:06:03.961Z,79
2015-09-19T03:06:22.415Z,79
2015-09-19T03:06:40.822Z,79
2015-09-19T03:06:59.165Z,78
2015-09-19T03:07:17.634Z,79
2015-09-19T03:07:36.199Z,78
2015-09-19T03:07:54.839Z,79
2015-09-19T03:08:13.402Z,79
2015-09-19T03:08:31.826Z,79
2015-09-19T03:08:50.185Z,79
2015-09-19T03:09:08.669Z,79
2015-09-19T03:09:26.985Z,79
2015-09-19T03:09:45.547Z,79
2015-09-19T03:10:04.032Z,79
2015-09-19T03:10:22.672Z,79
2015-09-19T03:10:41.033Z,78
2015-09-19T03:10:59.673Z,79
2015-09-19T03:11:18.283Z,77
2015-09-19T03:11:36.644Z,76
2015-09-19T03:11:55.160Z,77
2015-09-19T03:12:13.550Z,77
2015-09-19T03:12:32.146Z,77
2015-09-19T03:12:50.552Z,77
2015-09-19T03:13:09.099Z,78
2015-09-19T03:13:27.570Z,79
2015-09-19T03:13:46.117Z,79
2015-09-19T03:14:04.679Z,79
2015-09-19T03:14:23.398Z,79
2015-09-19T03:14:41.963Z,79
2015-09-19T03:15:00.322Z,76
2015-09-19T03:15:18.884Z,76
2015-09-19T03:15:37.246Z,76
2015-09-19T03:15:55.808Z,76
2015-09-19T03:16:14.168Z,77
2015-09-19T03:16:32.637Z,77
2015-09-19T03:16:51.309Z,76
2015-09-19T03:17:09.903Z,77
2015-09-19T03:17:28.544Z,77
2015-09-19T03:17:46.937Z,77
2015-09-19T03:18:05.562Z,77
2015-09-19T03:18:24.031Z,77
2015-09-19T03:18:42.611Z,77
2015-09-19T03:19:01.127Z,77
2015-09-19T03:19:19.830Z,76
2015-09-19T03:19:38.222Z,76
2015-09-19T03:19:56.768Z,76
2015-09-19T03:20:15.362Z,77
2015-09-19T03:20:33.740Z,76
2015-09-19T03:20:52.100Z,77
2015-09-19T03:21:10.506Z,77
2015-09-19T03:21:28.928Z,77
2015-09-19T03:21:47.430Z,77
2015-09-19T03:22:05.789Z,78
2015-09-19T03:22:24.148Z,77
2015-09-19T03:22:42.729Z,77
2015-09-19T03:23:01.150Z,77
2015-09-19T03:23:19.619Z,76
2015-09-19T03:23:38.120Z,76
2015-09-19T03:23:56.683Z,75
2015-09-19T03:24:15.276Z,76
2015-09-19T03:24:33.808Z,76
2015-09-19T03:24:52.217Z,76
2015-09-19T03:25:10.670Z,76
2015-09-19T03:25:29.123Z,76
2015-09-19T03:25:47.515Z,76
2015-09-19T03:26:06.155Z,75
2015-09-19T03:26:24.734Z,76
2015-09-19T03:26:43.315Z,75
2015-09-19T03:27:01.846Z,76
2015-09-19T03:27:20.237Z,76
2015-09-19T03:27:39.018Z,76
2015-09-19T03:27:57.425Z,75
2015-09-19T03:28:16.003Z,76
2015-09-19T03:28:34.503Z,76
2015-09-19T03:28:52.896Z,76
2015-09-19T03:29:11.458Z,76
2015-09-19T03:29:29.818Z,76
2015-09-19T03:29:48.413Z,76
2015-09-19T03:30:06.976Z,76
2015-09-19T03:30:25.460Z,76
2015-09-19T03:30:43.853Z,76
2015-09-19T03:31:02.228Z,76
2015-09-19T03:31:20.728Z,76
2015-09-19T03:31:39.119Z,76
2015-09-19T03:31:57.542Z,76
2015-09-19T03:32:16.152Z,77
2015-09-19T03:32:34.527Z,76
2015-09-19T03:32:52.888Z,76
2015-09-19T03:33:11.279Z,77
2015-09-19T03:33:29.701Z,78
2015-09-19T03:33:48.359Z,76
2015-09-19T03:34:06.984Z,76
2015-09-19T03:34:25.359Z,77
2015-09-19T03:34:43.765Z,77
2015-09-19T03:35:02.548Z,77
2015-09-19T03:35:21.048Z,77
2015-09-19T03:35:39.408Z,77
2015-09-19T03:35:58.004Z,76
2015-09-19T03:36:16.707Z,77
2015-09-19T03:36:35.160Z,77
2015-09-19T03:36:53.787Z,77
2015-09-19T03:37:12.287Z,77
2015-09-19T03:37:30.709Z,77
2015-09-19T03:37:49.302Z,77
2015-09-19T03:38:07.789Z,77
2015-09-19T03:38:26.211Z,77
2015-09-19T03:38:44.648Z,77
2015-09-19T03:39:03.103Z,77
2015-09-19T03:39:21.510Z,77
2015-09-19T03:39:40.010Z,77
2015-09-19T03:39:58.590Z,77
2015-09-19T03:40:17.074Z,76
2015-09-19T03:40:35.637Z,78
2015-09-19T03:40:54.027Z,78
2015-09-19T03:41:12.467Z,77
2015-09-19T03:41:31.123Z,77
2015-09-19T03:41:49.810Z,77
2015-09-19T03:42:08.375Z,77
2015-09-19T03:42:26.734Z,77
2015-09-19T03:43:04.486Z,77
2015-09-19T03:43:22.830Z,77
2015-09-19T03:43:41.408Z,77
2015-09-19T03:43:59.986Z,77
2015-09-19T03:44:18.426Z,78
2015-09-19T03:44:36.801Z,78
2015-09-19T03:44:55.285Z,77
2015-09-19T03:45:13.756Z,78
2015-09-19T03:45:32.272Z,78
2015-09-19T03:45:51.053Z,78
2015-09-19T03:46:09.508Z,78
2015-09-19T03:46:28.024Z,77
2015-09-19T03:46:46.414Z,77
2015-09-19T03:47:04.883Z,77
2015-09-19T03:47:23.275Z,77
2015-09-19T03:47:41.650Z,77
2015-09-19T03:48:00.134Z,77
2015-09-19T03:48:18.621Z,77
2015-09-19T03:48:37.106Z,77
2015-09-19T03:48:55.496Z,77
2015-09-19T03:49:14.014Z,77
2015-09-19T03:49:32.483Z,77
2015-09-19T03:49:50.998Z,78
2015-09-19T03:50:09.359Z,77
2015-09-19T03:50:27.796Z,77
2015-09-19T03:50:46.421Z,78
2015-09-19T03:51:04.499Z,77
2015-09-19T03:51:22.893Z,78
2015-09-19T03:51:41.576Z,78
2015-09-19T03:52:00.107Z,78
2015-09-19T03:52:18.765Z,78
2015-09-19T03:52:37.171Z,80
2015-09-19T03:52:55.671Z,77
2015-09-19T03:53:14.142Z,77
2015-09-19T03:53:32.658Z,76
2015-09-19T03:53:51.158Z,77
2015-09-19T03:54:09.580Z,77
2015-09-19T03:54:28.301Z,77
2015-09-19T03:54:46.676Z,77
2015-09-19T03:55:05.114Z,78
2015-09-19T03:55:23.568Z,78
2015-09-19T03:55:42.318Z,77
2015-09-19T03:56:01.099Z,78
2015-09-19T03:56:19.586Z,78
2015-09-19T03:56:38.007Z,78
2015-09-19T03:56:56.367Z,78
2015-09-19T03:57:14.882Z,78
2015-09-19T03:57:33.572Z,78
2015-09-19T03:57:51.916Z,77
2015-09-19T03:58:10.525Z,78
2015-09-19T03:58:28.980Z,77
2015-09-19T03:58:47.324Z,78
2015-09-19T03:59:05.777Z,78
2015-09-19T03:59:24.404Z,78
2015-09-19T03:59:42.763Z,78
2015-09-19T04:00:01.310Z,78
2015-09-19T04:00:19.779Z,78
2015-09-19T04:00:38.187Z,78
2015-09-19T04:00:56.812Z,78
2015-09-19T04:01:15.250Z,78
2015-09-19T04:01:33.705Z,78
2015-09-19T04:01:52.392Z,77
2015-09-19T04:02:11.064Z,77
2015-09-19T04:02:29.691Z,78
2015-09-19T04:02:48.301Z,78
2015-09-19T04:03:06.879Z,78
2015-09-19T04:03:25.412Z,78
2015-09-19T04:03:43.912Z,78
2015-09-19T04:04:02.271Z,78
2015-09-19T04:04:20.756Z,78
2015-09-19T04:04:39.491Z,78
2015-09-19T04:04:58.022Z,78
2015-09-19T04:05:16.397Z,78
2015-09-19T04:05:34.838Z,78
2015-09-19T04:05:53.354Z,78
2015-09-19T04:06:11.807Z,78
2015-09-19T04:06:30.418Z,78
2015-09-19T04:06:48.887Z,78
2015-09-19T04:07:07.246Z,78
2015-09-19T04:07:25.652Z,78
2015-09-19T04:07:44.123Z,78
2015-09-19T04:08:02.561Z,78
2015-09-19T04:08:21.123Z,78
2015-09-19T04:08:39.531Z,78
2015-09-19T04:08:57.953Z,78
2015-09-19T04:09:16.328Z,78
2015-09-19T04:09:34.814Z,78
2015-09-19T04:09:53.173Z,78
2015-09-19T04:10:11.626Z,78
2015-09-19T04:10:30.032Z,78
2015-09-19T04:10:48.425Z,78
2015-09-19T04:11:07.269Z,78
2015-09-19T04:11:25.847Z,78
2015-09-19T04:11:44.396Z,78
2015-09-19T04:12:02.755Z,78
2015-09-19T04:12:21.349Z,78
2015-09-19T04:12:40.054Z,78
2015-09-19T04:12:58.554Z,78
2015-09-19T04:13:17.007Z,78
2015-09-19T04:13:35.601Z,78
2015-09-19T04:13:54.010Z,78
2015-09-19T04:14:12.385Z,78
2015-09-19T04:14:30.776Z,76
2015-09-19T04:14:49.340Z,76
2015-09-19T04:15:07.715Z,76
2015-09-19T04:15:26.200Z,76
2015-09-19T04:15:44.560Z,76
2015-09-19T04:16:03.138Z,76
2015-09-19T04:16:21.498Z,75
2015-09-19T04:16:40.060Z,76
2015-09-19T04:16:58.484Z,76
2015-09-19T04:17:16.937Z,76
2015-09-19T04:17:35.171Z,75
2015-09-19T04:17:53.658Z,76
2015-09-19T04:18:12.080Z,76
2015-09-19T04:18:30.486Z,76
2015-09-19T04:18:48.863Z,76
2015-09-19T04:19:07.425Z,76
2015-09-19T04:19:25.894Z,76
2015-09-19T04:19:44.332Z,77
2015-09-19T04:20:02.740Z,76
2015-09-19T04:20:21.334Z,76
2015-09-19T04:20:39.709Z,76
2015-09-19T04:20:58.165Z,76
2015-09-19T04:21:16.524Z,76
2015-09-19T04:21:35.040Z,76
2015-09-19T04:21:53.401Z,76
2015-09-19T04:22:11.761Z,76
2015-09-19T04:22:30.167Z,76
2015-09-19T04:22:48.668Z,76
2015-09-19T04:23:07.121Z,77
2015-09-19T04:23:24.840Z,77
2015-09-19T04:23:43.262Z,78
2015-09-19T04:24:01.701Z,77